Time;durP1;ratioP1;P1;durP2;ratioP2;P2;SDS_P1;SDS_P2;PMS_P1;PMS_P2;Temp;Humidity;BMP_temperature;BMP_pressure;BME280_temperature;BME280_humidity;BME280_pressure;Samples;Min_cycle;Max_cycle;Signal;HPM_P1;HPM_P2
2023/04/10 00:01:49;;;;;;;14.75;11.50;;;11.70;59.80;;;;;;5078554;28;20027;-67
2023/04/10 00:04:14;;;;;;;16.08;12.50;;;11.60;59.70;;;;;;5086673;28;20028;-68
2023/04/10 00:06:40;;;;;;;16.67;12.88;;;11.60;59.80;;;;;;5084484;28;20032;-66
2023/04/10 00:09:09;;;;;;;17.70;13.23;;;11.60;59.80;;;;;;5088960;28;20111;-65
2023/04/10 00:11:35;;;;;;;14.00;11.30;;;11.60;59.90;;;;;;5078285;28;20082;-67
2023/04/10 00:14:00;;;;;;;15.70;12.32;;;11.60;60.00;;;;;;5084750;28;20020;-68
2023/04/10 00:16:26;;;;;;;15.80;12.38;;;11.60;60.00;;;;;;5082081;28;20040;-66
2023/04/10 00:18:51;;;;;;;15.23;11.20;;;11.60;60.00;;;;;;5078746;28;20065;-67
2023/04/10 00:21:17;;;;;;;14.02;11.13;;;11.60;60.00;;;;;;5087422;28;20024;-66
2023/04/10 00:23:43;;;;;;;14.23;10.80;;;11.60;60.10;;;;;;5085189;28;20474;-66
2023/04/10 00:26:08;;;;;;;15.63;11.85;;;11.60;60.20;;;;;;5089380;28;20036;-68
2023/04/10 00:28:36;;;;;;;14.55;11.30;;;11.50;60.20;;;;;;5089389;28;20035;-68
2023/04/10 00:31:03;;;;;;;14.00;10.75;;;11.50;60.40;;;;;;5080616;28;20028;-68
2023/04/10 00:33:28;;;;;;;15.95;11.32;;;11.50;60.40;;;;;;5093027;28;20023;-70
2023/04/10 00:35:54;;;;;;;14.95;10.90;;;11.40;60.60;;;;;;5091265;28;20020;-67
2023/04/10 00:38:20;;;;;;;15.60;11.25;;;11.40;60.70;;;;;;5081416;28;20360;-68
2023/04/10 00:40:46;;;;;;;15.00;10.48;;;11.40;60.90;;;;;;5088069;28;20036;-68
2023/04/10 00:43:11;;;;;;;13.02;10.00;;;11.40;61.10;;;;;;5091356;28;20032;-68
2023/04/10 00:45:38;;;;;;;15.80;10.95;;;11.30;61.00;;;;;;5090609;28;20024;-67
2023/04/10 00:48:03;;;;;;;12.20;10.05;;;11.30;61.10;;;;;;5086829;28;20024;-67
2023/04/10 00:50:29;;;;;;;13.02;10.23;;;11.30;61.20;;;;;;5090898;28;20452;-68
2023/04/10 00:52:56;;;;;;;13.35;10.18;;;11.30;61.30;;;;;;5086512;28;20017;-68
2023/04/10 00:55:22;;;;;;;12.45;9.45;;;11.20;61.40;;;;;;5092051;28;20028;-67
2023/04/10 00:57:48;;;;;;;13.07;10.10;;;11.30;61.50;;;;;;5089433;28;20540;-68
2023/04/10 01:00:15;;;;;;;12.65;9.80;;;11.20;61.50;;;;;;5091115;28;20024;-68
2023/04/10 01:02:41;;;;;;;12.30;9.57;;;11.20;61.70;;;;;;5081380;28;20111;-67
2023/04/10 01:05:08;;;;;;;14.02;10.32;;;11.20;61.90;;;;;;5084296;28;20079;-70
2023/04/10 01:07:51;;;;;;;11.75;9.25;;;11.10;62.20;;;;;;5089925;28;20051;-67
2023/04/10 01:10:46;;;;;;;12.45;9.90;;;11.10;62.20;;;;;;5084138;28;20035;-69
2023/04/10 01:13:30;;;;;;;10.70;8.57;;;11.10;62.30;;;;;;5078782;28;20137;-67
2023/04/10 01:16:17;;;;;;;10.98;8.98;;;11.10;62.30;;;;;;5088608;28;20013;-66
2023/04/10 01:18:55;;;;;;;10.98;8.52;;;11.10;62.30;;;;;;5073008;28;20035;-66
2023/04/10 01:21:22;;;;;;;10.85;8.85;;;11.10;62.40;;;;;;5072390;28;20036;-66
2023/04/10 01:24:05;;;;;;;12.25;9.50;;;11.00;62.40;;;;;;5087623;28;20024;-66
2023/04/10 01:27:08;;;;;;;10.85;8.60;;;11.00;62.50;;;;;;5081976;28;20036;-70
2023/04/10 01:29:38;;;;;;;10.65;7.90;;;11.00;62.50;;;;;;5071447;28;20032;-66
2023/04/10 01:32:16;;;;;;;9.88;7.78;;;11.00;62.50;;;;;;5091225;28;20032;-69
2023/04/10 01:34:49;;;;;;;11.27;8.55;;;11.00;62.50;;;;;;5090754;28;20020;-67
2023/04/10 01:37:22;;;;;;;10.68;8.60;;;11.00;62.50;;;;;;5086816;28;20016;-68
2023/04/10 01:39:53;;;;;;;10.90;8.70;;;11.00;62.60;;;;;;5078055;28;20281;-69
2023/04/10 01:42:19;;;;;;;12.23;9.52;;;11.00;63.30;;;;;;5082870;28;20104;-67
2023/04/10 01:44:46;;;;;;;11.70;8.85;;;10.90;62.90;;;;;;5091808;28;20474;-67
2023/04/10 01:47:15;;;;;;;16.27;11.25;;;10.90;63.00;;;;;;5085554;28;20112;-68
2023/04/10 01:49:45;;;;;;;13.85;10.43;;;10.90;63.10;;;;;;5084518;28;20020;-67
2023/04/10 01:52:11;;;;;;;11.77;9.15;;;10.90;63.20;;;;;;5071440;28;20027;-69
2023/04/10 01:54:37;;;;;;;10.40;8.07;;;10.80;63.10;;;;;;5088880;28;20035;-67
2023/04/10 01:57:03;;;;;;;12.00;8.90;;;10.80;63.10;;;;;;5088032;28;20024;-69
2023/04/10 01:59:30;;;;;;;12.60;9.65;;;10.80;63.20;;;;;;5074762;28;20509;-68
2023/04/10 02:02:00;;;;;;;10.55;8.32;;;10.80;63.40;;;;;;5077422;28;20363;-67
2023/04/10 02:04:26;;;;;;;10.35;7.82;;;10.80;63.40;;;;;;5090385;28;20028;-67
2023/04/10 02:07:03;;;;;;;10.68;8.45;;;10.80;63.40;;;;;;5089513;28;20023;-67
2023/04/10 02:10:11;;;;;;;12.43;9.43;;;10.80;63.40;;;;;;5076624;28;20116;-68
2023/04/10 02:12:52;;;;;;;10.85;8.10;;;10.80;63.50;;;;;;5078752;28;20112;-67
2023/04/10 02:15:22;;;;;;;9.65;8.10;;;10.80;63.50;;;;;;5090128;28;20051;-67
2023/04/10 02:17:49;;;;;;;10.75;8.98;;;10.80;63.50;;;;;;5089277;28;20031;-68
2023/04/10 02:20:17;;;;;;;12.43;9.77;;;10.70;63.50;;;;;;5070516;28;20059;-70
2023/04/10 02:22:43;;;;;;;9.63;7.70;;;10.70;63.70;;;;;;5084102;28;20068;-68
2023/04/10 02:25:09;;;;;;;11.35;8.85;;;10.70;63.70;;;;;;5089569;28;20036;-68
2023/04/10 02:27:36;;;;;;;9.93;8.20;;;10.70;63.80;;;;;;5087833;28;20075;-68
2023/04/10 02:30:03;;;;;;;10.70;8.15;;;10.70;63.90;;;;;;5075482;28;20051;-66
2023/04/10 02:32:29;;;;;;;11.27;8.68;;;10.70;63.90;;;;;;5080250;28;20020;-67
2023/04/10 02:34:55;;;;;;;9.98;8.20;;;10.70;63.90;;;;;;5073651;28;20035;-67
2023/04/10 02:37:22;;;;;;;11.25;8.18;;;10.60;63.90;;;;;;5070499;28;20037;-67
2023/04/10 02:39:47;;;;;;;10.63;8.98;;;10.70;64.00;;;;;;5084130;28;20042;-67
2023/04/10 02:42:13;;;;;;;11.38;8.80;;;10.60;64.10;;;;;;5089166;28;20486;-67
2023/04/10 02:44:40;;;;;;;11.50;8.27;;;10.50;64.30;;;;;;5075296;28;20032;-66
2023/04/10 02:47:06;;;;;;;9.05;7.25;;;10.50;64.20;;;;;;5068586;28;20497;-66
2023/04/10 02:49:36;;;;;;;11.13;8.82;;;10.50;64.10;;;;;;5081703;28;20024;-67
2023/04/10 02:52:02;;;;;;;9.20;7.55;;;10.40;64.20;;;;;;5090077;28;20085;-67
2023/04/10 02:54:27;;;;;;;9.88;7.90;;;10.40;64.30;;;;;;5085632;28;20490;-67
2023/04/10 02:56:55;;;;;;;8.68;7.32;;;10.50;64.30;;;;;;5081713;28;20048;-69
2023/04/10 02:59:21;;;;;;;9.23;7.22;;;10.50;64.30;;;;;;5078831;28;20056;-67
2023/04/10 03:01:47;;;;;;;14.73;10.65;;;10.50;64.20;;;;;;5089740;28;20145;-66
2023/04/10 03:04:13;;;;;;;13.60;10.05;;;10.40;64.30;;;;;;5088530;28;20024;-67
2023/04/10 03:06:38;;;;;;;11.55;9.52;;;10.40;64.40;;;;;;5074018;28;20024;-68
2023/04/10 03:09:04;;;;;;;12.65;9.50;;;10.40;64.50;;;;;;5074959;28;20104;-67
2023/04/10 03:11:30;;;;;;;11.27;9.07;;;10.40;64.50;;;;;;5083681;28;20026;-68
2023/04/10 03:13:57;;;;;;;10.80;8.88;;;10.40;64.50;;;;;;5087536;28;20032;-67
2023/04/10 03:16:23;;;;;;;9.95;8.25;;;10.30;64.50;;;;;;5077948;28;20056;-69
2023/04/10 03:18:49;;;;;;;11.20;8.90;;;10.40;64.60;;;;;;5075237;28;20028;-69
2023/04/10 03:21:15;;;;;;;11.27;8.70;;;10.30;64.60;;;;;;5075130;28;20474;-69
2023/04/10 03:23:40;;;;;;;10.88;8.48;;;10.30;64.70;;;;;;5089292;28;20054;-68
2023/04/10 03:26:06;;;;;;;10.65;8.20;;;10.30;64.70;;;;;;5087346;28;20067;-67
2023/04/10 03:28:34;;;;;;;12.05;9.13;;;10.30;64.60;;;;;;5086845;28;20125;-66
2023/04/10 03:31:01;;;;;;;12.98;10.02;;;10.40;64.70;;;;;;5084233;28;20025;-68
2023/04/10 03:33:27;;;;;;;13.10;9.60;;;10.30;64.60;;;;;;5081326;28;20486;-68
2023/04/10 03:35:52;;;;;;;14.80;10.85;;;10.30;64.80;;;;;;5075276;28;20031;-67
2023/04/10 03:38:18;;;;;;;12.98;9.98;;;10.30;65.00;;;;;;5070020;28;20035;-68
2023/04/10 03:40:44;;;;;;;12.50;9.50;;;10.20;65.10;;;;;;5079997;28;20024;-67
2023/04/10 03:43:09;;;;;;;13.70;10.80;;;10.20;65.00;;;;;;5089440;28;20139;-68
2023/04/10 03:45:35;;;;;;;14.15;10.73;;;10.20;65.20;;;;;;5073794;28;20029;-67
2023/04/10 03:48:00;;;;;;;12.73;10.20;;;10.20;65.30;;;;;;5067848;28;20024;-72
2023/04/10 03:50:26;;;;;;;12.38;9.88;;;10.10;65.40;;;;;;5079560;28;20023;-67
2023/04/10 03:52:52;;;;;;;13.43;10.60;;;10.10;65.40;;;;;;5093194;28;20098;-68
2023/04/10 03:55:17;;;;;;;12.57;10.35;;;10.10;65.40;;;;;;5092849;28;20440;-67
2023/04/10 03:57:45;;;;;;;14.02;10.18;;;10.20;65.50;;;;;;5092641;28;20070;-67
2023/04/10 04:00:12;;;;;;;12.07;9.63;;;10.10;65.40;;;;;;5087994;28;20038;-68
2023/04/10 04:02:37;;;;;;;13.00;10.07;;;10.10;65.40;;;;;;5088482;28;20063;-67
2023/04/10 04:05:03;;;;;;;13.20;10.50;;;10.10;65.50;;;;;;5088238;28;20047;-67
2023/04/10 04:07:29;;;;;;;13.88;11.35;;;10.10;65.50;;;;;;5084685;28;20032;-68
2023/04/10 04:09:54;;;;;;;13.57;10.30;;;10.00;65.70;;;;;;5091982;28;20030;-68
2023/04/10 04:12:20;;;;;;;14.07;10.27;;;10.00;65.60;;;;;;5092098;28;20051;-68
2023/04/10 04:14:45;;;;;;;13.07;10.07;;;10.00;65.60;;;;;;5087841;28;20047;-67
2023/04/10 04:17:11;;;;;;;13.95;10.57;;;10.00;65.60;;;;;;5090190;28;20051;-69
2023/04/10 04:19:36;;;;;;;14.40;11.15;;;10.00;65.60;;;;;;5091712;28;20028;-69
2023/04/10 04:22:02;;;;;;;14.93;10.07;;;10.00;65.60;;;;;;5085791;28;20035;-66
2023/04/10 04:24:28;;;;;;;13.18;9.93;;;10.00;65.70;;;;;;5090325;28;20698;-66
2023/04/10 04:26:55;;;;;;;12.02;9.63;;;10.00;65.60;;;;;;5086296;28;20031;-67
2023/04/10 04:29:21;;;;;;;14.23;10.88;;;10.00;65.70;;;;;;5077597;28;20511;-68
2023/04/10 04:31:46;;;;;;;15.35;11.43;;;10.00;65.60;;;;;;5081923;28;20058;-67
2023/04/10 04:34:12;;;;;;;13.43;10.10;;;9.90;65.80;;;;;;5083160;28;20020;-66
2023/04/10 04:36:37;;;;;;;11.57;9.43;;;9.90;65.90;;;;;;5091253;28;20137;-67
2023/04/10 04:39:03;;;;;;;14.38;10.88;;;9.90;65.90;;;;;;5091549;28;20097;-68
2023/04/10 04:41:32;;;;;;;13.30;9.57;;;9.90;65.90;;;;;;5080545;28;20039;-67
2023/04/10 04:43:59;;;;;;;13.45;10.35;;;9.90;65.90;;;;;;5092057;28;20648;-69
2023/04/10 04:46:25;;;;;;;14.45;10.70;;;9.90;65.90;;;;;;5088096;28;20111;-68
2023/04/10 04:48:51;;;;;;;13.68;11.15;;;9.90;65.90;;;;;;5090685;28;20112;-67
2023/04/10 04:51:16;;;;;;;12.75;10.18;;;9.90;66.70;;;;;;5075586;28;20017;-68
2023/04/10 04:53:42;;;;;;;13.00;9.93;;;9.90;66.00;;;;;;5091981;28;20023;-66
2023/04/10 04:56:07;;;;;;;12.43;10.10;;;9.90;65.90;;;;;;5085279;28;20028;-66
2023/04/10 04:58:33;;;;;;;13.02;10.35;;;9.90;65.70;;;;;;5092308;28;20027;-67
2023/04/10 05:00:59;;;;;;;13.57;10.40;;;9.90;65.80;;;;;;5078564;28;20028;-67
2023/04/10 05:03:27;;;;;;;12.25;9.13;;;9.90;65.80;;;;;;5090039;28;20035;-69
2023/04/10 05:05:56;;;;;;;12.52;9.57;;;9.90;65.60;;;;;;5086709;28;20097;-68
2023/04/10 05:08:21;;;;;;;11.85;9.65;;;9.90;65.60;;;;;;5091865;28;20024;-69
2023/04/10 05:10:47;;;;;;;13.00;9.60;;;10.00;65.60;;;;;;5091321;28;20108;-67
2023/04/10 05:13:14;;;;;;;12.68;9.80;;;10.00;65.60;;;;;;5087187;28;20028;-67
2023/04/10 05:15:40;;;;;;;13.00;10.52;;;9.90;65.40;;;;;;5080640;28;20017;-69
2023/04/10 05:18:05;;;;;;;13.80;9.95;;;10.00;65.50;;;;;;5086281;28;20031;-68
2023/04/10 05:20:33;;;;;;;13.70;10.95;;;9.90;65.50;;;;;;5091387;28;20035;-68
2023/04/10 05:22:59;;;;;;;13.15;10.68;;;9.90;65.60;;;;;;5090373;28;20028;-68
2023/04/10 05:25:25;;;;;;;12.80;10.40;;;9.90;65.50;;;;;;5089006;28;20493;-67
2023/04/10 05:27:50;;;;;;;14.10;11.27;;;9.90;65.50;;;;;;5080629;28;20033;-68
2023/04/10 05:30:16;;;;;;;14.65;10.80;;;9.90;65.50;;;;;;5071961;28;20020;-68
2023/04/10 05:32:41;;;;;;;11.80;9.75;;;10.00;65.50;;;;;;5082886;28;20118;-68
2023/04/10 05:35:07;;;;;;;12.13;9.52;;;10.30;65.20;;;;;;5079371;28;20017;-66
2023/04/10 05:37:33;;;;;;;13.68;10.35;;;10.60;64.40;;;;;;5088905;28;20062;-67
2023/04/10 05:39:59;;;;;;;11.73;9.75;;;11.00;63.40;;;;;;5090066;28;20089;-68
2023/04/10 05:42:24;;;;;;;13.57;10.45;;;11.10;62.70;;;;;;5084477;28;20030;-67
2023/04/10 05:44:51;;;;;;;12.70;9.90;;;11.10;62.20;;;;;;5087299;28;20028;-66
2023/04/10 05:47:16;;;;;;;13.65;10.43;;;10.90;62.20;;;;;;5089472;28;20024;-66
2023/04/10 05:49:42;;;;;;;13.32;10.20;;;10.80;62.50;;;;;;5073455;28;20078;-68
2023/04/10 05:52:07;;;;;;;12.20;9.18;;;10.70;62.80;;;;;;5086966;28;20028;-68
2023/04/10 05:54:33;;;;;;;14.27;10.40;;;10.60;63.10;;;;;;5079923;28;20107;-69
2023/04/10 05:56:59;;;;;;;14.30;10.70;;;10.60;63.30;;;;;;5080131;28;20028;-68
2023/04/10 05:59:24;;;;;;;15.07;10.77;;;10.60;63.40;;;;;;5090457;28;20031;-68
2023/04/10 06:01:50;;;;;;;13.80;10.38;;;10.80;63.30;;;;;;5087252;28;20077;-68
2023/04/10 06:04:15;;;;;;;13.55;9.77;;;10.90;63.10;;;;;;5081494;28;20016;-70
2023/04/10 06:06:41;;;;;;;13.65;9.85;;;11.10;62.60;;;;;;5082727;28;20028;-67
2023/04/10 06:09:07;;;;;;;15.13;11.77;;;11.30;62.20;;;;;;5082110;28;20093;-67
2023/04/10 06:11:32;;;;;;;12.93;10.25;;;11.40;61.40;;;;;;5087766;28;20067;-67
2023/04/10 06:13:58;;;;;;;13.48;10.18;;;11.50;61.40;;;;;;5082178;28;20055;-70
2023/04/10 06:16:23;;;;;;;12.90;10.23;;;11.60;61.30;;;;;;5087771;28;20026;-67
2023/04/10 06:18:51;;;;;;;13.10;10.80;;;11.70;61.20;;;;;;5083496;28;20016;-67
2023/04/10 06:21:17;;;;;;;12.82;10.55;;;11.80;60.90;;;;;;5086938;28;20028;-69
2023/04/10 06:23:42;;;;;;;11.25;8.90;;;11.90;60.60;;;;;;5081877;28;20039;-69
2023/04/10 06:26:08;;;;;;;14.27;11.07;;;12.10;60.40;;;;;;5087915;28;20039;-67
2023/04/10 06:28:34;;;;;;;13.18;10.05;;;12.20;60.20;;;;;;5085517;28;20043;-68
2023/04/10 06:31:02;;;;;;;13.65;10.43;;;12.20;60.10;;;;;;5083904;28;20027;-68
2023/04/10 06:33:27;;;;;;;14.98;11.30;;;12.20;60.00;;;;;;5076021;28;20489;-68
2023/04/10 06:35:53;;;;;;;13.27;10.32;;;12.10;60.00;;;;;;5090160;28;20016;-71
2023/04/10 06:38:19;;;;;;;11.77;9.65;;;12.20;60.30;;;;;;5084127;28;20508;-68
2023/04/10 06:40:44;;;;;;;13.27;10.80;;;12.40;60.20;;;;;;5084645;28;20586;-67
2023/04/10 06:43:10;;;;;;;14.68;11.35;;;12.50;59.90;;;;;;5072658;28;20040;-68
2023/04/10 06:45:36;;;;;;;12.55;9.63;;;12.60;59.60;;;;;;5085264;28;20031;-68
2023/04/10 06:48:01;;;;;;;15.70;12.07;;;12.90;59.30;;;;;;5080663;28;20031;-68
2023/04/10 06:50:27;;;;;;;13.20;9.57;;;13.40;58.20;;;;;;5071663;28;20033;-66
2023/04/10 06:52:54;;;;;;;12.10;10.35;;;13.50;57.50;;;;;;5075858;28;20031;-67
2023/04/10 06:55:20;;;;;;;11.30;8.95;;;13.30;57.20;;;;;;5083990;28;20031;-68
2023/04/10 06:57:46;;;;;;;16.40;10.68;;;13.40;57.40;;;;;;5080046;28;20029;-69
2023/04/10 07:00:12;;;;;;;12.30;10.20;;;13.40;57.10;;;;;;5083511;28;20052;-68
2023/04/10 07:02:37;;;;;;;13.60;10.93;;;13.30;57.30;;;;;;5088941;28;20398;-67
2023/04/10 07:05:03;;;;;;;11.88;9.38;;;13.10;57.30;;;;;;5085821;28;20017;-67
2023/04/10 07:07:30;;;;;;;13.07;10.57;;;13.10;57.50;;;;;;5083901;28;20031;-68
2023/04/10 07:09:56;;;;;;;13.13;10.45;;;13.10;57.40;;;;;;5080756;28;20442;-68
2023/04/10 07:12:22;;;;;;;11.77;9.85;;;13.30;58.00;;;;;;5085691;28;20133;-66
2023/04/10 07:14:48;;;;;;;13.18;9.80;;;13.50;56.80;;;;;;5081957;28;20024;-68
2023/04/10 07:17:13;;;;;;;14.05;10.23;;;13.40;56.70;;;;;;5089188;28;20131;-67
2023/04/10 07:19:39;;;;;;;12.20;9.80;;;13.50;56.70;;;;;;5074734;28;20387;-68
2023/04/10 07:22:04;;;;;;;11.52;9.57;;;13.60;56.60;;;;;;5077749;28;20106;-67
2023/04/10 07:24:31;;;;;;;12.95;10.38;;;13.80;56.20;;;;;;5083580;28;20054;-70
2023/04/10 07:26:57;;;;;;;13.40;11.13;;;13.90;56.00;;;;;;5090539;28;20082;-67
2023/04/10 07:29:23;;;;;;;13.38;9.75;;;13.90;55.60;;;;;;5084546;28;20020;-67
2023/04/10 07:31:48;;;;;;;10.80;8.70;;;13.80;55.70;;;;;;5087347;28;20103;-69
2023/04/10 07:34:14;;;;;;;11.23;8.85;;;13.60;56.10;;;;;;5087585;28;20035;-68
2023/04/10 07:36:39;;;;;;;12.73;9.45;;;13.60;56.20;;;;;;5083414;28;20013;-67
2023/04/10 07:39:05;;;;;;;11.85;9.50;;;13.50;56.50;;;;;;5084956;28;20697;-67
2023/04/10 07:41:31;;;;;;;10.73;8.70;;;13.40;56.70;;;;;;5085973;28;20032;-67
2023/04/10 07:43:56;;;;;;;11.65;8.50;;;13.30;56.90;;;;;;5082704;28;20418;-68
2023/04/10 07:46:22;;;;;;;11.57;9.63;;;13.30;56.70;;;;;;5089029;28;20035;-67
2023/04/10 07:48:48;;;;;;;11.48;9.43;;;13.50;56.60;;;;;;5087685;28;20085;-67
2023/04/10 07:51:14;;;;;;;12.57;9.18;;;13.70;56.00;;;;;;5083611;28;20024;-68
2023/04/10 07:53:39;;;;;;;11.20;9.73;;;13.90;56.10;;;;;;5083697;28;20470;-68
2023/04/10 07:56:06;;;;;;;11.50;9.00;;;14.10;55.70;;;;;;5084146;28;20521;-70
2023/04/10 07:58:32;;;;;;;10.88;9.13;;;14.10;55.40;;;;;;5083137;28;20100;-69
2023/04/10 08:00:57;;;;;;;10.80;8.63;;;14.00;55.50;;;;;;5083844;28;20119;-70
2023/04/10 08:03:23;;;;;;;10.68;8.95;;;14.10;55.60;;;;;;5083880;28;20034;-69
2023/04/10 08:05:48;;;;;;;9.23;6.95;;;14.20;55.80;;;;;;5078667;28;20032;-66
2023/04/10 08:08:15;;;;;;;10.32;8.35;;;14.50;55.20;;;;;;5084706;28;20042;-67
2023/04/10 08:10:41;;;;;;;11.63;9.18;;;14.90;54.30;;;;;;5084484;28;20027;-67
2023/04/10 08:13:07;;;;;;;9.40;7.68;;;15.40;53.20;;;;;;5083204;28;20016;-68
2023/04/10 08:15:32;;;;;;;10.70;7.78;;;16.20;51.90;;;;;;5081112;28;20028;-68
2023/04/10 08:17:58;;;;;;;9.95;8.32;;;16.80;50.50;;;;;;5082929;28;20028;-69
2023/04/10 08:20:23;;;;;;;9.98;8.35;;;17.20;48.90;;;;;;5086934;28;20024;-68
2023/04/10 08:22:49;;;;;;;8.70;7.30;;;17.30;48.20;;;;;;5087686;28;20040;-68
2023/04/10 08:25:15;;;;;;;10.30;7.68;;;17.50;47.60;;;;;;5087562;28;20043;-68
2023/04/10 08:27:40;;;;;;;10.02;8.40;;;17.40;47.30;;;;;;5087666;28;20055;-67
2023/04/10 08:30:06;;;;;;;10.27;7.60;;;17.20;47.90;;;;;;5086651;28;20486;-68
2023/04/10 08:32:32;;;;;;;9.80;7.82;;;16.90;48.10;;;;;;5083322;28;20029;-68
2023/04/10 08:34:58;;;;;;;8.68;7.40;;;16.50;48.60;;;;;;5086576;28;20046;-68
2023/04/10 08:37:25;;;;;;;8.18;6.68;;;16.00;49.60;;;;;;5085016;28;20059;-68
2023/04/10 08:39:50;;;;;;;8.10;6.45;;;15.80;50.80;;;;;;5087856;28;20028;-69
2023/04/10 08:42:16;;;;;;;8.35;6.85;;;15.70;51.20;;;;;;5094760;28;20028;-68
2023/04/10 08:44:42;;;;;;;10.95;8.32;;;15.40;51.40;;;;;;5088468;28;20031;-67
2023/04/10 08:47:08;;;;;;;8.68;7.15;;;15.30;51.60;;;;;;5092697;28;20031;-67
2023/04/10 08:49:49;;;;;;;9.95;8.63;;;15.10;51.90;;;;;;5089867;28;20367;-68
2023/04/10 08:52:20;;;;;;;8.35;6.35;;;14.80;52.10;;;;;;5095439;28;20027;-68
2023/04/10 08:54:49;;;;;;;9.50;7.65;;;14.80;52.80;;;;;;5088108;28;20059;-70
2023/04/10 08:57:19;;;;;;;9.43;7.57;;;14.80;52.70;;;;;;5086088;28;20027;-67
2023/04/10 08:59:50;;;;;;;8.60;7.05;;;14.60;52.50;;;;;;5082052;28;20024;-68
2023/04/10 09:02:16;;;;;;;9.20;7.07;;;14.60;52.90;;;;;;5080232;28;20031;-68
2023/04/10 09:04:49;;;;;;;7.80;6.40;;;14.70;53.10;;;;;;5084718;28;20036;-69
2023/04/10 09:07:15;;;;;;;9.25;6.97;;;14.80;53.30;;;;;;5083998;28;20394;-69
2023/04/10 09:09:42;;;;;;;8.60;6.90;;;14.90;53.20;;;;;;5088487;28;20084;-68
2023/04/10 09:12:07;;;;;;;10.98;7.55;;;14.80;52.80;;;;;;5079851;28;20438;-68
2023/04/10 09:14:34;;;;;;;9.45;7.78;;;14.90;53.10;;;;;;5091263;28;20027;-67
2023/04/10 09:17:15;;;;;;;9.32;7.10;;;14.90;53.10;;;;;;5091726;28;20019;-68
2023/04/10 09:19:42;;;;;;;8.88;7.53;;;14.90;53.30;;;;;;5075192;28;20078;-68
2023/04/10 09:22:08;;;;;;;9.30;6.90;;;14.90;54.00;;;;;;5087921;28;20081;-67
2023/04/10 09:24:39;;;;;;;9.90;7.88;;;14.90;52.90;;;;;;5090604;28;20024;-68
2023/04/10 09:27:05;;;;;;;8.23;7.00;;;14.90;52.50;;;;;;5073931;28;20097;-66
2023/04/10 09:29:40;;;;;;;8.90;7.22;;;14.90;52.60;;;;;;5083889;28;20032;-69
2023/04/10 09:32:06;;;;;;;8.88;6.97;;;14.90;52.30;;;;;;5090845;28;20024;-68
2023/04/10 09:34:31;;;;;;;7.38;6.22;;;15.00;52.60;;;;;;5091207;28;20085;-68
2023/04/10 09:36:58;;;;;;;10.68;7.80;;;15.10;52.60;;;;;;5076287;28;20085;-67
2023/04/10 09:39:37;;;;;;;7.82;6.80;;;15.10;52.60;;;;;;5081077;28;20032;-67
2023/04/10 09:42:03;;;;;;;8.38;6.85;;;15.00;52.70;;;;;;5087937;28;20039;-67
2023/04/10 09:44:36;;;;;;;8.52;6.97;;;15.10;53.20;;;;;;5079898;28;20090;-68
2023/04/10 09:47:13;;;;;;;9.20;7.43;;;15.10;53.10;;;;;;5085950;28;20077;-67
2023/04/10 09:49:53;;;;;;;8.85;6.72;;;15.10;53.30;;;;;;5085564;28;20040;-68
2023/04/10 09:52:27;;;;;;;8.05;6.20;;;15.10;53.50;;;;;;5089903;28;20097;-67
2023/04/10 09:54:54;;;;;;;9.10;7.00;;;15.10;53.60;;;;;;5090840;28;20669;-67
2023/04/10 09:57:21;;;;;;;9.05;7.18;;;15.00;53.50;;;;;;5079182;28;20024;-67
2023/04/10 09:59:55;;;;;;;9.18;7.53;;;14.90;53.90;;;;;;5089437;28;20024;-68
2023/04/10 10:02:23;;;;;;;8.00;6.50;;;14.90;54.10;;;;;;5076331;28;20598;-68
2023/04/10 10:04:49;;;;;;;7.60;6.60;;;14.90;54.20;;;;;;5078782;28;20062;-68
2023/04/10 10:07:17;;;;;;;10.40;7.38;;;14.90;54.10;;;;;;5090541;28;20444;-69
2023/04/10 10:09:44;;;;;;;9.30;7.85;;;14.90;54.00;;;;;;5081978;28;20021;-68
2023/04/10 10:12:11;;;;;;;8.00;6.57;;;14.80;54.10;;;;;;5081572;28;20511;-68
2023/04/10 10:14:51;;;;;;;9.70;6.47;;;14.90;54.30;;;;;;5084878;28;20490;-68
2023/04/10 10:17:18;;;;;;;8.45;6.60;;;14.90;54.10;;;;;;5082555;28;20024;-67
2023/04/10 10:20:07;;;;;;;7.45;6.10;;;14.90;54.20;;;;;;5090318;28;20076;-68
2023/04/10 10:22:33;;;;;;;7.57;6.30;;;15.10;54.20;;;;;;5077517;28;20360;-68
2023/04/10 10:25:01;;;;;;;9.23;6.32;;;15.20;54.20;;;;;;5080741;28;20021;-67
2023/04/10 10:27:29;;;;;;;8.30;6.75;;;15.20;54.30;;;;;;5079760;28;20024;-67
2023/04/10 10:29:58;;;;;;;7.68;6.60;;;15.30;54.30;;;;;;5071023;28;20028;-67
2023/04/10 10:32:24;;;;;;;8.32;6.50;;;15.20;54.20;;;;;;5090001;28;20028;-67
2023/04/10 10:34:52;;;;;;;9.38;6.43;;;15.20;54.00;;;;;;5083756;28;20469;-69
2023/04/10 10:37:20;;;;;;;7.70;6.40;;;15.20;54.20;;;;;;5080857;28;20035;-67
2023/04/10 10:39:55;;;;;;;7.50;6.22;;;15.20;54.30;;;;;;5085566;28;20016;-69
2023/04/10 10:42:33;;;;;;;7.65;5.95;;;15.30;54.50;;;;;;5081276;28;20028;-69
2023/04/10 10:45:08;;;;;;;7.55;5.80;;;15.40;54.30;;;;;;5083739;28;20036;-68
2023/04/10 10:47:46;;;;;;;6.93;5.93;;;15.50;54.10;;;;;;5078434;28;20031;-67
2023/04/10 10:50:11;;;;;;;8.70;6.00;;;15.60;54.00;;;;;;5089185;28;20024;-67
2023/04/10 10:52:46;;;;;;;6.95;5.60;;;15.70;53.60;;;;;;5081675;28;20104;-68
2023/04/10 10:55:21;;;;;;;7.18;5.47;;;15.70;53.50;;;;;;5076382;28;20052;-67
2023/04/10 10:57:54;;;;;;;7.30;5.57;;;15.80;53.30;;;;;;5080592;28;20031;-66
2023/04/10 11:00:24;;;;;;;6.32;5.30;;;15.80;53.20;;;;;;5087204;28;20052;-67
2023/04/10 11:03:07;;;;;;;6.72;4.97;;;16.00;53.10;;;;;;5089868;28;20024;-68
2023/04/10 11:05:55;;;;;;;6.22;5.38;;;16.00;52.80;;;;;;5081386;28;20032;-69
2023/04/10 11:08:46;;;;;;;5.75;4.95;;;16.20;52.60;;;;;;5087078;28;20101;-69
2023/04/10 11:11:20;;;;;;;6.05;5.43;;;16.30;52.40;;;;;;5089615;28;20506;-69
2023/04/10 11:13:49;;;;;;;6.70;5.30;;;16.50;51.90;;;;;;5088145;28;20495;-68
2023/04/10 11:16:14;;;;;;;6.57;5.18;;;16.60;51.50;;;;;;5089252;28;20062;-68
2023/04/10 11:18:49;;;;;;;5.90;4.82;;;16.70;51.30;;;;;;5077858;28;20060;-68
2023/04/10 11:21:18;;;;;;;6.15;5.05;;;16.70;51.30;;;;;;5077740;28;20046;-68
2023/04/10 11:23:53;;;;;;;6.00;5.32;;;16.80;51.20;;;;;;5089323;28;20035;-69
2023/04/10 11:26:43;;;;;;;6.20;5.53;;;16.80;51.20;;;;;;5088930;28;20127;-67
2023/04/10 11:29:11;;;;;;;6.40;5.13;;;16.90;51.00;;;;;;5075407;28;20078;-68
2023/04/10 11:31:37;;;;;;;7.28;5.93;;;17.10;51.20;;;;;;5089140;28;20421;-68
2023/04/10 11:34:06;;;;;;;5.75;4.95;;;17.20;50.90;;;;;;5089073;28;20016;-67
2023/04/10 11:36:34;;;;;;;6.80;5.28;;;17.30;50.70;;;;;;5076089;28;20025;-67
2023/04/10 11:39:04;;;;;;;5.70;4.97;;;17.50;51.20;;;;;;5080778;28;20494;-69
2023/04/10 11:41:32;;;;;;;6.63;5.13;;;17.60;50.40;;;;;;5080706;28;20024;-68
2023/04/10 11:44:05;;;;;;;6.50;5.50;;;17.60;50.50;;;;;;5077345;28;20387;-68
2023/04/10 11:46:38;;;;;;;6.53;5.10;;;17.80;50.30;;;;;;5070097;28;20086;-68
2023/04/10 11:49:06;;;;;;;6.60;5.10;;;17.80;49.80;;;;;;5082940;28;20039;-68
2023/04/10 11:51:32;;;;;;;5.50;4.80;;;17.80;49.50;;;;;;5089223;28;20478;-68
2023/04/10 11:54:09;;;;;;;5.95;4.97;;;17.80;49.20;;;;;;5075861;28;20036;-67
2023/04/10 11:56:36;;;;;;;8.00;5.05;;;17.90;48.90;;;;;;5075541;28;20017;-68
2023/04/10 11:59:06;;;;;;;6.88;5.38;;;17.90;49.60;;;;;;5086055;28;20092;-67
2023/04/10 12:01:32;;;;;;;5.15;4.20;;;17.90;48.80;;;;;;5087699;28;20027;-68
2023/04/10 12:03:58;;;;;;;5.15;4.30;;;17.90;49.00;;;;;;5084295;28;20056;-69
2023/04/10 12:06:24;;;;;;;5.75;4.88;;;18.00;49.30;;;;;;5083392;28;20066;-67
2023/04/10 12:08:50;;;;;;;7.38;5.25;;;18.00;49.00;;;;;;5078038;28;20020;-68
2023/04/10 12:11:24;;;;;;;7.10;4.88;;;18.00;48.70;;;;;;5082227;28;20052;-67
2023/04/10 12:13:54;;;;;;;5.35;4.82;;;17.90;48.80;;;;;;5076988;28;20008;-68
2023/04/10 12:16:20;;;;;;;5.20;4.32;;;17.90;48.90;;;;;;5086030;28;20028;-67
2023/04/10 12:18:48;;;;;;;5.85;4.60;;;18.10;49.30;;;;;;5075479;28;20092;-68
2023/04/10 12:21:13;;;;;;;6.07;5.10;;;18.10;48.90;;;;;;5092355;28;20367;-69
2023/04/10 12:23:39;;;;;;;6.85;4.75;;;18.10;48.90;;;;;;5087859;28;20054;-68
2023/04/10 12:26:09;;;;;;;5.47;4.60;;;18.20;49.00;;;;;;5089106;28;20528;-69
2023/04/10 12:28:36;;;;;;;8.07;4.20;;;18.20;48.90;;;;;;5088548;28;20028;-67
2023/04/10 12:31:02;;;;;;;4.97;4.47;;;18.30;48.90;;;;;;5089678;28;20032;-67
2023/04/10 12:33:28;;;;;;;5.90;4.82;;;18.30;48.40;;;;;;5090195;28;20028;-68
2023/04/10 12:35:53;;;;;;;5.75;4.38;;;18.30;47.90;;;;;;5091187;28;20496;-67
2023/04/10 12:38:36;;;;;;;4.90;3.97;;;18.30;47.90;;;;;;5088316;28;20107;-67
2023/04/10 12:41:02;;;;;;;5.40;3.80;;;18.30;47.80;;;;;;5089411;28;20031;-67
2023/04/10 12:43:37;;;;;;;3.70;3.20;;;18.20;47.70;;;;;;5091844;28;20470;-67